Αρχική σελίδα
METAR-TAF:

METAR-TAF

Αεροδρόμια :

Νιαμέυ, Νίγηρας

γεωγραφικό πλάτος: 13-29N, γεωγραφικό μήκος: 002-10E, υψόμετρο: 223 μ

Παρών καιρός

Η αναφορά έγινε 20 λεπτά πριν, στις 05:00 UTC
Άνεμος 2 kt από Δ
Θερμοκρασία 25°C
Υγρασία 100%
Πίεση 1011 hPa
Ορατότητα 10 χλμ και άνω
Δεν υπάρχουν νέφη με βάση κάτω από τα 1500 μ. και δεν υπάρχουν νέφη σωρειτομελανίτες.

METAR: DRRN 230500Z 28002KT CAVOK 25/25 Q1011 NOSIG

Χρόνος: 06:20 (05:20 UTC)

Πρόγνωση Καιρού

Η αναφορά έγινε 6 ώρες και 20 λεπτά πριν, στις 23:00 UTC
Η πρόγνωση ισχύει από τις 23 στις 00 UTC έως τις 24 στις 06 UTC
Άνεμος 8 kt από Ν/ΝΔ
Ορατότητα 10 χλμ και άνω
Δεν υπάρχουν νέφη με βάση κάτω από τα 1500 μ. και δεν υπάρχουν νέφη σωρειτομελανίτες.

TAF: DRRN 222300Z 2300/2406 20008KT CAVOK

Μετεωρολογικές αναφορές και προγνώσεις για περισσότερα από 4000 αεροδρόμια (δελτία METAR και TAF).

Οι διαθέσιμοι σταθμοί απεικονίζονται στο χάρτη με κίτρινες και κόκκινες κουκκίδες.

Μετακινήστε το ποντίκι πάνω από τις κουκκίδες για να δείτε το όνομα του σταθμού.

Στη συνέχεια, κάντε κλικ για να δείτε τις μετεωρολογικές αναφορές και τις προγνώσεις καιρού.

Για να αλλάξετε το χάρτη: κάντε κλικ στα πράσινα κουμπιά με τον μαύρο σταυρό για να ζουμάρετε, στο πράσινο κουμπί με την παύλα για να αφαιρέσετε το ζουμ ή στα πράσινα βέλη για να αντιπαραβάλλετε χάρτες.


METAR-TAF: